Time;durP1;ratioP1;P1;durP2;ratioP2;P2;SDS_P1;SDS_P2;PMS_P1;PMS_P2;Temp;Humidity;BMP_temperature;BMP_pressure;BME280_temperature;BME280_humidity;BME280_pressure;Samples;Min_cycle;Max_cycle;Signal;HPM_P1;HPM_P2
2022/12/02 00:02:29;;;;;;;47.77;18.00;;;5.40;99.90;;;;;;4991741;28;20022;-43
2022/12/02 00:05:03;;;;;;;47.30;18.55;;;5.40;99.90;;;;;;4985245;28;20023;-39
2022/12/02 00:07:31;;;;;;;55.55;17.67;;;5.50;99.90;;;;;;4984414;28;20525;-45
2022/12/02 00:09:57;;;;;;;50.15;17.25;;;5.40;99.90;;;;;;4993107;28;20029;-39
2022/12/02 00:12:25;;;;;;;55.22;18.27;;;5.40;99.90;;;;;;4992199;28;20368;-41
2022/12/02 00:14:55;;;;;;;;;;;5.40;99.90;;;;;;4992367;28;20126;-42
2022/12/02 00:17:21;;;;;;;59.15;18.98;;;5.30;99.90;;;;;;4971212;28;19924;-46
2022/12/02 00:19:47;;;;;;;56.88;19.85;;;5.30;99.90;;;;;;4991233;28;20030;-44
2022/12/02 00:22:12;;;;;;;54.03;19.42;;;5.30;99.90;;;;;;4994298;28;20479;-40
2022/12/02 00:24:38;;;;;;;55.40;18.90;;;5.30;99.90;;;;;;4996549;28;20022;-42
2022/12/02 00:27:03;;;;;;;55.72;20.80;;;5.30;99.90;;;;;;4986725;28;20026;-43
2022/12/02 00:29:29;;;;;;;56.75;19.23;;;5.30;99.90;;;;;;4993793;28;20414;-44
2022/12/02 00:31:54;;;;;;;66.53;20.27;;;5.30;99.90;;;;;;4976587;28;20082;-44
2022/12/02 00:34:20;;;;;;;69.10;21.15;;;5.30;99.90;;;;;;4972329;28;20421;-45
2022/12/02 00:36:46;;;;;;;58.35;20.40;;;5.40;99.90;;;;;;4976959;28;20036;-37
2022/12/02 00:39:11;;;;;;;61.75;20.45;;;5.40;99.90;;;;;;4991415;28;20479;-41
2022/12/02 00:41:37;;;;;;;61.70;21.23;;;5.40;99.90;;;;;;4976514;28;20023;-50
2022/12/02 00:46:46;;;;;;;70.15;21.13;;;5.40;99.90;;;;;;4989344;28;20033;-42
2022/12/02 00:49:14;;;;;;;67.97;21.42;;;5.40;99.90;;;;;;4990653;28;20026;-43
2022/12/02 00:51:41;;;;;;;77.00;23.73;;;5.40;99.90;;;;;;4986919;28;20034;-42
2022/12/02 00:56:51;;;;;;;71.85;24.05;;;5.40;99.90;;;;;;4995113;28;20037;-41
2022/12/02 00:59:17;;;;;;;66.75;23.38;;;5.30;99.90;;;;;;4995765;28;20030;-41
2022/12/02 01:01:43;;;;;;;77.72;21.25;;;5.30;99.90;;;;;;4993240;28;20058;-42
2022/12/02 01:04:10;;;;;;;71.35;23.58;;;5.30;99.90;;;;;;4988948;28;20033;-43
2022/12/02 01:06:36;;;;;;;64.72;22.00;;;5.30;99.90;;;;;;4995817;28;20375;-41
2022/12/02 01:09:01;;;;;;;69.85;24.08;;;5.30;99.90;;;;;;4995572;28;20033;-43
2022/12/02 01:11:27;;;;;;;74.45;22.55;;;5.30;99.90;;;;;;4977756;28;20038;-42
2022/12/02 01:13:52;;;;;;;63.15;21.75;;;5.20;99.90;;;;;;4995263;28;20026;-39
2022/12/02 01:16:18;;;;;;;75.10;25.55;;;5.30;99.90;;;;;;4995313;28;20026;-41
2022/12/02 01:18:44;;;;;;;76.00;24.92;;;5.30;99.90;;;;;;4995283;28;20034;-43
2022/12/02 01:21:09;;;;;;;78.75;24.83;;;5.30;99.90;;;;;;4987868;28;20443;-42
2022/12/02 01:23:35;;;;;;;68.55;23.17;;;5.30;99.90;;;;;;4992381;28;20022;-42
2022/12/02 01:26:01;;;;;;;73.35;24.02;;;5.20;99.90;;;;;;4997288;28;20037;-44
2022/12/02 01:28:26;;;;;;;65.38;23.38;;;5.20;99.90;;;;;;4997647;28;20026;-44
2022/12/02 01:30:52;;;;;;;72.38;23.73;;;5.20;99.90;;;;;;4995166;28;20030;-42
2022/12/02 01:33:17;;;;;;;64.63;24.05;;;5.20;99.90;;;;;;4993850;28;20483;-40
2022/12/02 01:35:43;;;;;;;74.00;22.83;;;5.20;99.90;;;;;;4992989;28;20244;-41
2022/12/02 01:38:09;;;;;;;67.85;23.65;;;5.20;99.90;;;;;;4993505;28;20471;-39
2022/12/02 01:40:34;;;;;;;71.88;23.17;;;5.20;99.90;;;;;;4994268;28;20030;-41
2022/12/02 01:43:00;;;;;;;70.85;23.45;;;5.20;99.90;;;;;;4993839;28;20485;-36
2022/12/02 01:45:26;;;;;;;69.00;23.23;;;5.30;99.90;;;;;;4994158;28;20113;-34
2022/12/02 01:47:52;;;;;;;81.28;24.50;;;5.30;99.90;;;;;;4992523;28;20030;-52
2022/12/02 01:50:19;;;;;;;73.00;23.05;;;5.30;99.90;;;;;;4993237;28;20041;-39
2022/12/02 01:52:45;;;;;;;72.93;22.52;;;5.30;99.90;;;;;;4972178;28;20026;-37
2022/12/02 01:55:19;;;;;;;66.68;23.30;;;5.30;99.90;;;;;;4976627;28;20118;-36
2022/12/02 01:57:45;;;;;;;74.47;24.90;;;5.40;99.90;;;;;;4993674;28;20434;-37
2022/12/02 02:00:13;;;;;;;74.00;24.17;;;5.40;99.90;;;;;;4992184;28;20038;-33
2022/12/02 02:02:39;;;;;;;67.28;23.45;;;5.30;99.90;;;;;;4992771;28;20043;-38
2022/12/02 02:05:09;;;;;;;70.90;22.60;;;5.20;99.90;;;;;;4990073;28;20506;-34
2022/12/02 02:07:37;;;;;;;67.93;23.70;;;5.30;99.90;;;;;;4974821;28;20041;-36
2022/12/02 02:10:03;;;;;;;70.05;24.10;;;5.30;99.90;;;;;;4993868;28;20080;-37
2022/12/02 02:12:29;;;;;;;74.78;23.58;;;5.30;99.90;;;;;;4994127;28;20429;-39
2022/12/02 02:14:55;;;;;;;71.05;23.25;;;5.30;99.90;;;;;;4992575;28;20026;-35
2022/12/02 02:17:21;;;;;;;66.65;21.45;;;5.20;99.90;;;;;;4993434;28;20394;-40
2022/12/02 02:19:47;;;;;;;62.88;20.13;;;5.10;99.90;;;;;;4990533;28;20031;-40
2022/12/02 02:22:19;;;;;;;61.38;21.98;;;5.20;99.90;;;;;;4973768;28;20373;-35
2022/12/02 02:24:45;;;;;;;69.80;22.63;;;5.20;99.90;;;;;;4969640;28;20030;-36
2022/12/02 02:27:10;;;;;;;64.25;23.90;;;5.20;99.90;;;;;;4993196;28;20022;-39
2022/12/02 02:29:36;;;;;;;63.67;23.17;;;5.20;99.90;;;;;;4993413;28;20022;-39
2022/12/02 02:32:03;;;;;;;70.05;23.10;;;5.10;99.90;;;;;;4991842;28;20050;-37
2022/12/02 02:34:28;;;;;;;68.55;21.45;;;5.10;99.90;;;;;;4991009;28;20124;-36
2022/12/02 02:36:54;;;;;;;68.45;22.55;;;5.20;99.90;;;;;;4992872;28;20109;-38
2022/12/02 02:39:21;;;;;;;75.85;23.73;;;5.20;99.90;;;;;;4972727;28;20031;-54
2022/12/02 02:41:47;;;;;;;64.78;22.42;;;5.20;99.90;;;;;;4993505;28;20077;-32
2022/12/02 02:44:14;;;;;;;70.85;23.02;;;5.10;99.90;;;;;;5000618;28;20076;-35
2022/12/02 02:46:40;;;;;;;70.05;21.00;;;5.10;99.90;;;;;;4993089;28;20482;-36
2022/12/02 02:49:05;;;;;;;66.40;22.80;;;5.10;99.90;;;;;;4994741;28;20089;-32
2022/12/02 02:51:31;;;;;;;66.20;23.92;;;5.00;99.90;;;;;;4993673;28;20038;-40
2022/12/02 02:53:57;;;;;;;72.53;21.58;;;5.00;99.90;;;;;;4992522;28;20037;-38
2022/12/02 02:56:23;;;;;;;62.53;20.05;;;5.00;99.90;;;;;;4993578;28;20421;-46
2022/12/02 02:58:48;;;;;;;75.32;22.45;;;4.90;99.90;;;;;;4992248;28;20044;-38
2022/12/02 03:01:22;;;;;;;73.70;20.73;;;5.00;99.90;;;;;;4993456;28;20084;-39
2022/12/02 03:03:53;;;;;;;69.22;21.15;;;5.00;99.90;;;;;;4992333;28;20037;-40
2022/12/02 03:06:19;;;;;;;62.35;19.85;;;5.00;99.90;;;;;;4993543;28;20026;-35
2022/12/02 03:08:47;;;;;;;70.40;21.17;;;5.00;99.90;;;;;;4991269;28;20101;-37
2022/12/02 03:11:13;;;;;;;66.65;21.85;;;5.10;99.90;;;;;;4961443;28;20495;-34
2022/12/02 03:13:41;;;;;;;76.35;20.80;;;5.20;99.90;;;;;;4974174;28;20050;-37
2022/12/02 03:16:10;;;;;;;67.47;20.58;;;5.20;99.90;;;;;;4984513;28;20106;-37
2022/12/02 03:18:39;;;;;;;68.68;21.25;;;5.30;99.90;;;;;;4993432;28;20160;-39
2022/12/02 03:21:05;;;;;;;76.22;21.05;;;5.20;99.90;;;;;;4992202;28;20030;-36
2022/12/02 03:23:31;;;;;;;60.70;19.10;;;5.30;99.90;;;;;;4992296;28;20586;-37
2022/12/02 03:25:58;;;;;;;59.53;19.13;;;5.30;99.90;;;;;;4993258;28;20026;-38
2022/12/02 03:28:23;;;;;;;59.92;20.70;;;5.30;99.90;;;;;;4993270;28;20030;-49
2022/12/02 03:30:51;;;;;;;56.35;19.40;;;5.30;99.90;;;;;;4993037;28;20019;-36
2022/12/02 03:33:17;;;;;;;62.20;19.40;;;5.30;99.90;;;;;;4992133;28;20053;-38
2022/12/02 03:35:43;;;;;;;66.50;20.33;;;5.30;99.90;;;;;;4993032;28;20101;-41
2022/12/02 03:38:08;;;;;;;65.50;21.25;;;5.30;99.90;;;;;;4992196;28;20057;-39
2022/12/02 03:40:35;;;;;;;58.45;18.60;;;5.20;99.90;;;;;;4990592;28;20521;-38
2022/12/02 03:43:00;;;;;;;59.47;18.00;;;5.20;99.90;;;;;;4991423;28;20037;-36
2022/12/02 03:45:26;;;;;;;59.15;19.70;;;5.10;99.90;;;;;;4994259;28;20490;-37
2022/12/02 03:47:52;;;;;;;56.08;16.95;;;5.00;99.90;;;;;;4991468;28;20031;-37
2022/12/02 03:50:18;;;;;;;60.67;17.40;;;5.00;99.90;;;;;;4990273;28;20359;-37
2022/12/02 03:52:44;;;;;;;65.38;20.13;;;5.10;99.90;;;;;;4991661;28;20386;-39
2022/12/02 03:55:10;;;;;;;69.85;17.98;;;5.10;99.90;;;;;;4992182;28;20027;-36
2022/12/02 03:57:36;;;;;;;59.67;18.95;;;5.20;99.90;;;;;;4996493;28;20053;-37
2022/12/02 04:00:04;;;;;;;62.70;19.33;;;5.20;99.90;;;;;;4996688;28;20077;-39
2022/12/02 04:02:29;;;;;;;57.25;18.05;;;5.20;99.90;;;;;;4978704;28;20479;-41
2022/12/02 04:04:55;;;;;;;63.30;19.27;;;5.00;99.90;;;;;;4996751;28;20077;-37
2022/12/02 04:07:20;;;;;;;64.55;18.52;;;5.10;99.90;;;;;;4996184;28;20411;-42
2022/12/02 04:09:46;;;;;;;70.55;20.30;;;5.10;99.90;;;;;;4995894;28;20026;-36
2022/12/02 04:12:12;;;;;;;61.28;19.02;;;5.10;99.90;;;;;;4996452;28;20030;-51
2022/12/02 04:14:37;;;;;;;58.42;18.73;;;5.10;99.90;;;;;;4995501;28;20097;-34
2022/12/02 04:17:03;;;;;;;63.97;19.65;;;5.00;99.90;;;;;;4995319;28;20026;-39
2022/12/02 04:19:28;;;;;;;54.67;17.95;;;5.10;99.90;;;;;;4995781;28;20034;-39
2022/12/02 04:21:54;;;;;;;53.35;18.38;;;5.10;99.90;;;;;;4995709;28;20491;-39
2022/12/02 04:24:19;;;;;;;62.97;18.85;;;5.00;99.90;;;;;;4995214;28;20034;-36
2022/12/02 04:26:45;;;;;;;56.13;19.40;;;5.00;99.90;;;;;;4995895;28;20053;-36
2022/12/02 04:29:11;;;;;;;64.28;18.30;;;5.00;99.90;;;;;;4994894;28;20029;-36
2022/12/02 04:31:36;;;;;;;62.63;18.83;;;5.00;99.90;;;;;;4993528;28;20027;-37
2022/12/02 04:34:02;;;;;;;60.88;16.55;;;5.00;99.90;;;;;;4994174;28;20051;-42
2022/12/02 04:36:28;;;;;;;65.20;18.77;;;5.00;99.90;;;;;;4993727;28;20034;-35
2022/12/02 04:38:53;;;;;;;51.17;16.40;;;5.00;99.90;;;;;;4995263;28;20562;-37
2022/12/02 04:41:19;;;;;;;60.15;18.48;;;5.10;99.90;;;;;;4994509;28;20026;-40
2022/12/02 04:43:44;;;;;;;55.08;18.50;;;5.10;99.90;;;;;;4998503;28;20022;-39
2022/12/02 04:46:10;;;;;;;58.08;17.13;;;5.00;99.90;;;;;;4997138;28;20022;-45
2022/12/02 04:48:35;;;;;;;54.25;17.65;;;5.10;99.90;;;;;;4987482;28;20514;-45
2022/12/02 04:51:01;;;;;;;59.58;17.48;;;5.10;99.90;;;;;;4989699;28;20035;-42
2022/12/02 04:53:27;;;;;;;59.00;19.88;;;5.10;99.90;;;;;;4994852;28;20662;-53
2022/12/02 04:55:52;;;;;;;64.35;20.05;;;5.10;99.90;;;;;;4993188;28;20089;-43
2022/12/02 04:58:18;;;;;;;62.88;18.90;;;5.10;99.90;;;;;;4995118;28;20487;-35
2022/12/02 05:00:43;;;;;;;63.67;19.08;;;5.10;99.90;;;;;;4993622;28;20121;-38
2022/12/02 05:03:09;;;;;;;66.15;18.88;;;5.10;99.90;;;;;;4993629;28;20536;-40
2022/12/02 05:05:37;;;;;;;56.70;16.95;;;5.00;99.90;;;;;;4992688;28;20022;-35
2022/12/02 05:08:04;;;;;;;62.25;17.73;;;5.10;99.90;;;;;;4994431;28;20026;-34
2022/12/02 05:10:29;;;;;;;51.20;17.73;;;5.10;99.90;;;;;;4993571;28;20105;-44
2022/12/02 05:12:55;;;;;;;54.42;17.13;;;5.10;99.90;;;;;;4995043;28;20109;-46
2022/12/02 05:15:21;;;;;;;61.80;16.48;;;5.00;99.90;;;;;;4992646;28;20039;-38
2022/12/02 05:17:47;;;;;;;56.75;17.05;;;5.00;99.90;;;;;;4994609;28;20030;-39
2022/12/02 05:20:12;;;;;;;38.60;14.65;;;5.00;99.90;;;;;;4992125;28;20026;-37
2022/12/02 05:22:39;;;;;;;51.92;16.20;;;5.10;99.90;;;;;;4994461;28;20491;-41
2022/12/02 05:25:05;;;;;;;52.88;16.27;;;5.00;99.90;;;;;;4998429;28;20050;-40
2022/12/02 05:27:31;;;;;;;53.30;16.73;;;5.00;99.90;;;;;;4995052;28;20044;-37
2022/12/02 05:29:56;;;;;;;45.00;16.83;;;4.90;99.90;;;;;;4995171;28;20110;-38
2022/12/02 05:32:22;;;;;;;53.80;16.92;;;4.80;99.90;;;;;;4970615;28;20128;-38
2022/12/02 05:34:47;;;;;;;62.08;19.02;;;4.80;99.90;;;;;;4993978;28;20034;-40
2022/12/02 05:37:13;;;;;;;53.47;16.42;;;4.80;99.90;;;;;;4993432;28;20577;-37
2022/12/02 05:39:39;;;;;;;60.58;16.30;;;4.70;99.90;;;;;;4993572;28;20033;-43
2022/12/02 05:42:06;;;;;;;58.15;16.40;;;4.70;99.90;;;;;;4992292;28;20031;-42
2022/12/02 05:44:33;;;;;;;56.45;17.25;;;4.60;99.90;;;;;;4994700;28;20502;-41
2022/12/02 05:47:04;;;;;;;56.72;16.38;;;4.60;99.90;;;;;;4994808;28;20073;-40
2022/12/02 05:49:32;;;;;;;59.50;16.10;;;4.60;99.90;;;;;;4992656;28;20023;-42
2022/12/02 05:52:00;;;;;;;54.85;16.40;;;4.50;99.90;;;;;;4994578;28;20034;-38
2022/12/02 05:54:27;;;;;;;64.22;16.67;;;4.50;99.90;;;;;;4993772;28;20030;-36
2022/12/02 05:56:55;;;;;;;60.88;16.67;;;4.60;99.90;;;;;;4994687;28;20038;-75
2022/12/02 05:59:21;;;;;;;63.55;17.50;;;4.60;99.90;;;;;;4994826;28;20058;-34
2022/12/02 06:01:55;;;;;;;62.00;15.88;;;4.60;99.90;;;;;;4994781;28;20037;-46
2022/12/02 06:04:29;;;;;;;60.13;15.70;;;4.60;99.90;;;;;;4993667;28;20034;-40
2022/12/02 06:06:59;;;;;;;63.28;16.13;;;4.50;99.90;;;;;;4976924;28;20035;-45
2022/12/02 06:09:28;;;;;;;60.25;17.05;;;4.50;99.90;;;;;;4976028;28;20482;-43
2022/12/02 06:11:54;;;;;;;51.78;14.90;;;4.60;99.90;;;;;;4975071;28;20479;-42
2022/12/02 06:14:42;;;;;;;47.28;13.73;;;4.60;99.90;;;;;;4975161;28;20482;-48
2022/12/02 06:17:14;;;;;;;58.60;17.20;;;4.60;99.90;;;;;;4993695;28;20125;-44
2022/12/02 06:19:46;;;;;;;57.92;16.23;;;4.60;99.90;;;;;;4973402;28;20070;-43
2022/12/02 06:22:17;;;;;;;54.92;15.88;;;4.60;99.90;;;;;;4994180;28;20423;-45
2022/12/02 06:24:43;;;;;;;59.17;16.70;;;4.50;99.90;;;;;;4993170;28;20026;-42
2022/12/02 06:27:13;;;;;;;55.20;15.98;;;4.40;99.90;;;;;;4994065;28;20448;-40
2022/12/02 06:29:45;;;;;;;52.97;16.02;;;4.40;99.90;;;;;;4993201;28;20038;-44
2022/12/02 06:32:16;;;;;;;52.88;15.13;;;4.40;99.90;;;;;;4993987;28;20512;-42
2022/12/02 06:34:42;;;;;;;59.55;16.05;;;4.50;99.90;;;;;;4994266;28;20478;-40
2022/12/02 06:37:11;;;;;;;45.75;13.70;;;4.50;99.90;;;;;;4994100;28;20042;-41
2022/12/02 06:39:38;;;;;;;47.15;14.00;;;4.30;99.90;;;;;;4991695;28;20026;-44
2022/12/02 06:42:25;;;;;;;47.63;14.73;;;4.30;99.90;;;;;;4976121;28;20044;-43
2022/12/02 06:45:03;;;;;;;48.25;14.13;;;4.40;99.90;;;;;;4992804;28;20034;-43
2022/12/02 06:47:31;;;;;;;;;;;4.40;99.90;;;;;;4994366;28;20498;-46
2022/12/02 06:50:03;;;;;;;43.78;14.25;;;4.40;99.90;;;;;;4975793;28;19925;-46
2022/12/02 06:52:33;;;;;;;50.85;12.48;;;4.40;99.90;;;;;;4993817;28;20389;-43
2022/12/02 06:54:59;;;;;;;33.75;12.00;;;4.40;99.90;;;;;;4992730;28;20038;-42
2022/12/02 06:57:30;;;;;;;38.55;11.48;;;4.40;99.90;;;;;;4993764;28;20034;-57
2022/12/02 06:59:56;;;;;;;40.78;13.93;;;4.40;99.90;;;;;;4992513;28;20061;-44
2022/12/02 07:02:29;;;;;;;39.85;12.38;;;4.40;99.90;;;;;;4992796;28;20062;-45
2022/12/02 07:04:55;;;;;;;34.42;13.27;;;4.30;99.90;;;;;;4992302;28;20030;-44
2022/12/02 07:07:29;;;;;;;40.22;11.75;;;4.30;99.90;;;;;;4992529;28;20027;-44
2022/12/02 07:10:02;;;;;;;44.05;12.52;;;4.30;99.90;;;;;;4991925;28;20054;-42
2022/12/02 07:12:37;;;;;;;39.03;11.95;;;4.30;99.90;;;;;;4993598;28;20030;-42
2022/12/02 07:15:24;;;;;;;34.10;11.10;;;4.30;99.90;;;;;;4993491;28;20437;-44
2022/12/02 07:17:50;;;;;;;41.72;12.23;;;4.20;99.90;;;;;;4975353;28;20045;-43
2022/12/02 07:20:34;;;;;;;36.70;11.55;;;4.30;99.90;;;;;;4993134;28;20035;-44
2022/12/02 07:23:14;;;;;;;37.33;10.48;;;4.20;99.90;;;;;;4994455;28;20080;-45
2022/12/02 07:25:52;;;;;;;38.33;11.43;;;4.20;99.90;;;;;;4987091;28;20026;-49
2022/12/02 07:28:37;;;;;;;36.53;11.02;;;4.20;99.90;;;;;;4993407;28;20066;-50
2022/12/02 07:31:02;;;;;;;41.05;11.60;;;4.10;99.90;;;;;;4996102;28;20030;-42
2022/12/02 07:33:29;;;;;;;32.22;11.13;;;4.20;99.90;;;;;;4994938;28;20129;-49
2022/12/02 07:35:58;;;;;;;40.92;12.55;;;4.20;99.90;;;;;;4994709;28;20502;-48
2022/12/02 07:38:23;;;;;;;37.40;11.38;;;4.10;99.90;;;;;;4997282;28;20034;-52
2022/12/02 07:40:49;;;;;;;40.33;12.82;;;4.10;99.90;;;;;;4997023;28;20429;-47
2022/12/02 07:43:15;;;;;;;32.78;10.32;;;4.10;99.90;;;;;;4997270;28;20054;-45
2022/12/02 07:45:40;;;;;;;32.97;10.07;;;4.20;99.90;;;;;;4997028;28;20077;-48
2022/12/02 07:48:06;;;;;;;35.08;11.60;;;4.20;99.90;;;;;;4997174;28;20030;-43
2022/12/02 07:50:32;;;;;;;31.35;10.68;;;4.20;99.90;;;;;;4997013;28;20033;-44
2022/12/02 07:52:58;;;;;;;31.80;9.55;;;4.30;99.90;;;;;;4996404;28;20034;-45
2022/12/02 07:55:24;;;;;;;32.35;10.75;;;4.30;99.90;;;;;;4997690;28;20030;-45
2022/12/02 07:57:50;;;;;;;30.02;10.93;;;4.30;99.90;;;;;;4997276;28;20565;-43
2022/12/02 08:00:16;;;;;;;32.35;10.60;;;4.30;99.90;;;;;;4996961;28;20117;-48
2022/12/02 08:02:42;;;;;;;30.80;10.40;;;4.30;99.90;;;;;;4996759;28;20031;-44
2022/12/02 08:05:08;;;;;;;32.08;10.98;;;4.20;99.90;;;;;;4996672;28;20033;-45
2022/12/02 08:07:33;;;;;;;25.67;9.63;;;4.20;99.90;;;;;;4996588;28;20022;-40
2022/12/02 08:09:59;;;;;;;26.45;8.88;;;4.20;99.90;;;;;;4976702;28;20426;-37
2022/12/02 08:12:25;;;;;;;31.33;10.55;;;4.20;99.90;;;;;;4995523;28;20023;-47
2022/12/02 08:14:50;;;;;;;23.63;9.07;;;4.20;99.90;;;;;;4994869;28;20142;-46
2022/12/02 08:17:16;;;;;;;36.70;12.25;;;4.20;99.90;;;;;;4995808;28;20471;-53
2022/12/02 08:19:41;;;;;;;29.02;9.75;;;4.20;99.90;;;;;;4978954;28;20077;-46
2022/12/02 08:22:07;;;;;;;26.80;9.20;;;4.30;99.90;;;;;;4996353;28;20057;-53
2022/12/02 08:24:33;;;;;;;32.08;10.80;;;4.20;99.90;;;;;;4990346;28;20030;-44
2022/12/02 08:26:59;;;;;;;34.50;11.00;;;4.30;99.90;;;;;;4978255;28;20552;-43
2022/12/02 08:29:24;;;;;;;32.20;10.50;;;4.30;99.90;;;;;;4978617;28;20522;-43
2022/12/02 08:31:50;;;;;;;30.65;12.05;;;4.30;99.90;;;;;;4977918;28;20066;-44
2022/12/02 08:34:16;;;;;;;35.30;10.90;;;4.30;99.90;;;;;;4978885;28;20486;-43
2022/12/02 08:36:42;;;;;;;29.73;11.30;;;4.10;99.90;;;;;;4996411;28;20088;-41
2022/12/02 08:39:07;;;;;;;34.15;10.73;;;4.20;99.90;;;;;;4996134;28;20498;-44
2022/12/02 08:41:34;;;;;;;28.15;10.07;;;4.20;99.90;;;;;;4995159;28;20117;-41
2022/12/02 08:44:00;;;;;;;28.60;11.00;;;4.20;99.90;;;;;;4995977;28;20076;-42
2022/12/02 08:46:29;;;;;;;27.13;9.23;;;4.20;99.90;;;;;;4995607;28;20109;-44
2022/12/02 08:48:54;;;;;;;26.40;10.73;;;4.20;99.90;;;;;;4990165;28;20061;-49
2022/12/02 08:51:20;;;;;;;30.05;10.02;;;4.20;99.90;;;;;;4992573;28;20054;-43
2022/12/02 08:53:46;;;;;;;34.80;10.20;;;4.20;99.90;;;;;;4976268;28;20026;-43
2022/12/02 08:56:11;;;;;;;38.72;10.52;;;4.20;99.90;;;;;;4993019;28;20113;-42
2022/12/02 08:58:37;;;;;;;27.25;10.48;;;4.10;99.90;;;;;;4975923;28;20046;-47
2022/12/02 09:01:03;;;;;;;30.92;10.45;;;4.20;99.90;;;;;;4982886;28;20035;-44
2022/12/02 09:03:29;;;;;;;23.33;9.40;;;4.20;99.90;;;;;;4976661;28;20495;-44
2022/12/02 09:05:55;;;;;;;30.60;10.20;;;4.10;99.90;;;;;;4986220;28;20077;-44
2022/12/02 09:08:20;;;;;;;28.50;8.38;;;4.10;99.90;;;;;;4992514;28;20144;-42
2022/12/02 09:10:46;;;;;;;29.17;8.98;;;4.20;99.90;;;;;;4993735;28;20474;-41
2022/12/02 09:13:12;;;;;;;30.75;10.43;;;4.20;99.90;;;;;;4993599;28;20026;-45
2022/12/02 09:15:38;;;;;;;27.48;8.95;;;4.20;99.90;;;;;;4987359;28;20038;-44
2022/12/02 09:18:03;;;;;;;25.25;9.40;;;4.10;99.90;;;;;;4970755;28;20023;-44
2022/12/02 09:20:29;;;;;;;32.13;10.10;;;4.10;99.90;;;;;;5003121;28;20114;-43
2022/12/02 09:22:55;;;;;;;30.77;9.60;;;4.10;99.90;;;;;;5006856;28;20030;-43
2022/12/02 09:25:21;;;;;;;30.05;9.77;;;4.20;99.90;;;;;;4994631;28;20407;-43
2022/12/02 09:27:46;;;;;;;28.40;10.07;;;4.20;99.90;;;;;;4993035;28;20044;-43
2022/12/02 09:30:13;;;;;;;29.70;11.10;;;4.20;99.90;;;;;;4994298;28;20022;-44
2022/12/02 09:32:39;;;;;;;31.27;10.02;;;4.20;99.90;;;;;;4994164;28;20475;-41
2022/12/02 09:35:05;;;;;;;28.27;10.45;;;4.20;99.90;;;;;;4995140;28;20486;-39
2022/12/02 09:37:31;;;;;;;28.45;10.43;;;4.30;99.90;;;;;;4995012;28;20041;-39
2022/12/02 09:39:56;;;;;;;32.42;10.60;;;4.30;99.90;;;;;;4991179;28;20372;-34
2022/12/02 09:42:22;;;;;;;30.45;9.27;;;4.30;99.90;;;;;;4977626;28;20043;-40
2022/12/02 09:44:49;;;;;;;26.90;10.00;;;4.20;99.90;;;;;;4991447;28;20018;-40
2022/12/02 09:47:16;;;;;;;32.95;11.13;;;4.30;99.90;;;;;;4994279;28;20530;-39
2022/12/02 09:49:43;;;;;;;30.50;10.68;;;4.30;99.90;;;;;;4994487;28;20026;-39
2022/12/02 09:52:15;;;;;;;26.83;9.07;;;4.30;99.90;;;;;;4993114;28;20038;-35
2022/12/02 09:54:41;;;;;;;32.85;9.98;;;4.30;99.90;;;;;;4991103;28;20061;-37
2022/12/02 09:57:16;;;;;;;29.90;11.10;;;4.30;99.90;;;;;;4993845;28;20022;-42
2022/12/02 09:59:41;;;;;;;36.60;11.00;;;4.40;99.90;;;;;;4993667;28;20598;-43
2022/12/02 10:02:32;;;;;;;30.92;11.05;;;4.40;99.90;;;;;;4991011;28;20113;-40
2022/12/02 10:05:03;;;;;;;28.17;10.40;;;4.40;99.90;;;;;;4988784;28;20598;-39
2022/12/02 10:07:29;;;;;;;30.45;10.77;;;4.50;99.90;;;;;;4992118;28;20065;-42
2022/12/02 10:09:55;;;;;;;31.83;10.65;;;4.50;99.90;;;;;;4990761;28;20402;-44
2022/12/02 10:12:20;;;;;;;26.08;11.10;;;4.50;99.90;;;;;;4992532;28;20027;-37
2022/12/02 10:14:48;;;;;;;33.13;10.85;;;4.50;99.90;;;;;;4990847;28;20054;-38
2022/12/02 10:17:17;;;;;;;;;;;4.50;99.90;;;;;;4994723;28;20406;-35
2022/12/02 10:19:45;;;;;;;29.58;9.80;;;4.60;99.90;;;;;;4986682;28;19914;-44
2022/12/02 10:22:15;;;;;;;30.20;9.97;;;4.60;99.90;;;;;;4984914;28;20042;-43
2022/12/02 10:24:41;;;;;;;33.28;11.90;;;4.50;99.90;;;;;;4997681;28;20109;-43
2022/12/02 10:27:07;;;;;;;32.50;10.40;;;4.50;99.90;;;;;;4994149;28;20493;-43
2022/12/02 10:29:33;;;;;;;33.60;11.27;;;4.50;99.90;;;;;;4994018;28;20109;-45
2022/12/02 10:32:19;;;;;;;31.05;10.30;;;4.60;99.90;;;;;;4992836;28;20057;-41
2022/12/02 10:35:01;;;;;;;29.50;10.18;;;4.70;99.90;;;;;;4994023;28;20043;-43
2022/12/02 10:37:27;;;;;;;37.47;10.00;;;4.70;99.90;;;;;;4976221;28;20026;-44
2022/12/02 10:40:12;;;;;;;31.17;9.35;;;4.80;99.90;;;;;;4993920;28;20513;-41
2022/12/02 10:42:37;;;;;;;29.20;9.90;;;4.70;99.90;;;;;;4992993;28;20482;-43
2022/12/02 10:45:19;;;;;;;28.48;10.98;;;4.60;99.90;;;;;;4993460;28;20034;-45
2022/12/02 10:47:45;;;;;;;29.85;10.70;;;4.50;99.90;;;;;;4993859;28;20154;-42
2022/12/02 10:50:20;;;;;;;28.38;11.65;;;4.40;99.90;;;;;;4994050;28;20474;-42
2022/12/02 10:52:46;;;;;;;31.30;10.32;;;4.30;99.90;;;;;;4990852;28;20040;-43
2022/12/02 10:55:12;;;;;;;33.42;11.27;;;4.30;99.90;;;;;;4992675;28;20038;-42
2022/12/02 10:57:38;;;;;;;38.80;11.85;;;4.30;99.90;;;;;;4976477;28;20089;-43
2022/12/02 11:00:13;;;;;;;35.58;10.10;;;4.30;99.90;;;;;;4992307;28;20069;-42
2022/12/02 11:02:50;;;;;;;34.05;11.57;;;4.30;99.90;;;;;;4972754;28;20478;-42
2022/12/02 11:05:22;;;;;;;34.35;9.75;;;4.30;99.90;;;;;;4984949;28;20047;-45
2022/12/02 11:07:53;;;;;;;35.42;11.20;;;4.20;99.90;;;;;;4980535;28;20474;-43
2022/12/02 11:10:22;;;;;;;35.00;11.35;;;4.20;99.90;;;;;;4993481;28;20033;-44
2022/12/02 11:12:47;;;;;;;39.53;10.65;;;4.20;99.90;;;;;;4967339;28;20141;-44
2022/12/02 11:15:32;;;;;;;40.15;11.82;;;4.20;99.90;;;;;;4989243;28;20110;-41
2022/12/02 11:17:57;;;;;;;34.95;11.25;;;4.10;99.90;;;;;;4969262;28;20034;-44
2022/12/02 11:20:42;;;;;;;35.28;12.35;;;4.20;99.90;;;;;;4991159;28;20395;-46
2022/12/02 11:23:23;;;;;;;33.95;12.25;;;4.10;99.90;;;;;;4984119;28;20027;-44
2022/12/02 11:25:51;;;;;;;36.30;12.00;;;4.20;99.90;;;;;;4991187;28;20228;-40
2022/12/02 11:28:17;;;;;;;44.03;12.77;;;4.20;99.90;;;;;;4988989;28;20023;-40
2022/12/02 11:30:45;;;;;;;35.70;11.38;;;4.10;99.90;;;;;;4987988;28;20041;-51
2022/12/02 11:33:13;;;;;;;38.17;11.18;;;4.20;99.90;;;;;;4993435;28;20524;-58
2022/12/02 11:36:03;;;;;;;38.10;11.93;;;4.20;99.90;;;;;;4989947;28;20105;-40
2022/12/02 11:38:42;;;;;;;33.53;10.07;;;4.20;99.90;;;;;;4990853;28;20479;-43
2022/12/02 11:41:08;;;;;;;37.83;11.73;;;4.20;99.90;;;;;;4988995;28;20375;-39
2022/12/02 11:43:46;;;;;;;40.65;11.05;;;4.30;99.90;;;;;;4989117;28;20053;-43
2022/12/02 11:46:41;;;;;;;47.25;11.45;;;4.20;99.90;;;;;;4990062;28;20492;-42
2022/12/02 11:49:22;;;;;;;34.25;11.48;;;4.10;99.90;;;;;;4984394;28;20479;-44
2022/12/02 11:51:48;;;;;;;29.08;10.93;;;4.20;99.90;;;;;;4986416;28;20037;-43
2022/12/02 11:54:17;;;;;;;36.40;12.05;;;4.20;99.90;;;;;;4992176;28;20030;-42
2022/12/02 11:56:45;;;;;;;33.28;11.40;;;4.30;99.90;;;;;;4993062;28;20066;-43
2022/12/02 11:59:21;;;;;;;;;;;4.40;99.90;;;;;;4991100;28;20022;-43
2022/12/02 12:01:49;;;;;;;40.00;11.85;;;4.40;99.90;;;;;;4992731;28;20416;-43
2022/12/02 12:04:26;;;;;;;33.33;11.98;;;4.30;99.90;;;;;;4990227;28;20014;-43
2022/12/02 12:06:54;;;;;;;43.20;12.55;;;4.20;99.90;;;;;;4989516;28;20054;-42
2022/12/02 12:09:20;;;;;;;34.25;10.80;;;4.20;99.90;;;;;;4990059;28;20478;-42
2022/12/02 12:12:05;;;;;;;37.50;12.30;;;4.20;99.90;;;;;;4989296;28;20027;-44
2022/12/02 12:14:30;;;;;;;39.38;11.90;;;4.30;99.90;;;;;;4990855;28;20031;-39
2022/12/02 12:17:16;;;;;;;40.80;11.55;;;4.30;99.90;;;;;;4993620;28;20421;-56
2022/12/02 12:19:42;;;;;;;38.28;11.98;;;4.20;99.90;;;;;;4996468;28;20065;-42
2022/12/02 12:22:25;;;;;;;38.38;13.57;;;4.20;99.90;;;;;;4996370;28;20074;-44
2022/12/02 12:24:51;;;;;;;42.08;14.40;;;4.10;99.90;;;;;;4994518;28;20483;-42
2022/12/02 12:27:36;;;;;;;38.85;13.43;;;4.20;99.90;;;;;;4995425;28;20482;-53
2022/12/02 12:30:04;;;;;;;38.53;12.65;;;4.30;99.90;;;;;;4994663;28;20026;-43
2022/12/02 12:32:31;;;;;;;43.05;14.35;;;4.20;99.90;;;;;;4996108;28;20520;-43
2022/12/02 12:34:56;;;;;;;51.45;12.65;;;4.30;99.90;;;;;;5004011;28;20445;-47
2022/12/02 12:37:22;;;;;;;51.55;13.68;;;4.20;99.90;;;;;;5009430;28;20026;-41
2022/12/02 12:39:48;;;;;;;41.90;12.75;;;4.30;99.90;;;;;;4996050;28;20574;-42
2022/12/02 12:42:14;;;;;;;46.10;12.60;;;4.30;99.90;;;;;;4995280;28;20041;-43
2022/12/02 12:44:39;;;;;;;40.58;12.80;;;4.30;99.90;;;;;;4994307;28;20022;-45
2022/12/02 12:47:05;;;;;;;36.78;12.30;;;4.40;99.90;;;;;;4992113;28;20034;-43
2022/12/02 12:49:32;;;;;;;40.42;12.20;;;4.40;99.90;;;;;;4988452;28;20022;-42